.
WxDataArchive / Data Records for 2013-11-21
2013-11-20 November 2013 2013-11-22

Data Records for Thursday, 21 November 2013

Time	Temp	Chill	HIndex	Humid	Dewpt	 Wind 	HiWind	WindDir	Rain 	Barom 
-----	----	-----	------	-----	-----	------	------	-------	-----	----- 
00:00	42.6	42.6	42.6	66	32.0	0	3	112	0.00	30.228 
00:05	42.6	42.6	42.6	68	32.8	0	2	112	0.00	30.228 
00:10	42.6	42.6	42.6	70	33.5	0	1	112	0.00	30.228 
00:15	42.5	42.5	42.5	71	33.8	0	1	112	0.00	30.218 
00:20	42.2	42.2	42.2	73	34.2	0	1	112	0.00	30.218 
00:25	42.1	42.1	42.1	74	34.4	0	1	112	0.00	30.218 
00:30	41.8	41.8	41.8	75	34.5	0	2	112	0.00	30.217 
00:35	41.6	41.6	41.6	76	34.6	0	1	112	0.00	30.217 
00:40	41.5	41.5	41.5	76	34.5	0	0	---	0.00	30.217 
00:45	41.5	41.5	41.5	77	34.8	0	0	---	0.00	30.220 
00:50	41.5	41.5	41.5	77	34.8	0	1	112	0.00	30.220 
00:55	41.3	41.3	41.3	77	34.6	0	1	112	0.00	30.220 
01:00	41.3	41.3	41.3	77	34.6	0	1	112	0.00	30.216 
01:05	41.3	41.3	41.3	77	34.6	0	1	112	0.00	30.216 
01:10	41.3	41.3	41.3	76	34.3	0	2	112	0.00	30.216 
01:15	41.5	41.5	41.5	76	34.5	0	1	112	0.00	30.212 
01:20	41.5	41.5	41.5	77	34.8	0	1	112	0.00	30.212 
01:25	41.5	41.5	41.5	76	34.5	0	1	112	0.00	30.212 
01:30	41.5	41.5	41.5	76	34.5	0	1	112	0.00	30.210 
01:35	41.5	41.5	41.5	76	34.5	0	1	112	0.00	30.210 
01:40	41.5	41.5	41.5	76	34.5	0	1	112	0.00	30.210 
01:45	41.6	41.6	41.6	77	34.9	0	1	112	0.00	30.210 
01:50	41.6	41.6	41.6	76	34.6	0	1	112	0.00	30.210 
01:55	41.6	41.6	41.6	76	34.6	0	1	112	0.00	30.210 
02:00	41.6	41.6	41.6	76	34.6	0	1	112	0.00	30.211 
02:05	41.6	41.6	41.6	76	34.6	0	1	112	0.00	30.211 
02:10	41.8	41.8	41.8	76	34.8	0	2	112	0.00	30.211 
02:15	41.8	41.8	41.8	76	34.8	0	1	112	0.00	30.211 
02:20	41.9	41.9	41.9	75	34.6	0	1	112	0.00	30.211 
02:25	42.1	42.1	42.1	73	34.1	0	3	112	0.00	30.211 
02:30	42.5	42.5	42.5	71	33.8	1	3	112	0.00	30.218 
02:35	42.8	42.8	42.8	71	34.1	0	1	112	0.00	30.218 
02:40	42.8	42.8	42.8	71	34.1	0	1	112	0.00	30.218 
02:45	42.9	42.9	42.9	70	33.8	0	1	112	0.00	30.220 
02:50	42.9	42.9	42.9	70	33.8	0	2	112	0.00	30.220 
02:55	43.1	43.1	43.1	70	34.0	0	2	112	0.00	30.220 
03:00	43.1	43.1	43.1	70	34.0	0	2	112	0.00	30.222 
03:05	43.2	43.2	43.2	70	34.1	0	1	112	0.00	30.222 
03:10	43.2	43.2	43.2	70	34.1	0	0	---	0.00	30.222 
03:15	43.2	43.2	43.2	71	34.4	0	0	---	0.00	30.222 
03:20	43.2	43.2	43.2	71	34.4	0	1	112	0.00	30.222 
03:25	43.1	43.1	43.1	71	34.3	0	1	112	0.00	30.222 
03:30	43.1	43.1	43.1	72	34.7	0	1	112	0.00	30.223 
03:35	43.1	43.1	43.1	72	34.7	0	2	112	0.00	30.223 
03:40	43.1	43.1	43.1	72	34.7	0	0	---	0.00	30.223 
03:45	42.9	42.9	42.9	73	34.9	0	1	112	0.00	30.218 
03:50	42.9	42.9	42.9	72	34.5	0	2	112	0.00	30.218 
03:55	42.9	42.9	42.9	73	34.9	0	1	112	0.00	30.218 
04:00	42.9	42.9	42.9	73	34.9	0	1	112	0.00	30.214 
04:05	42.9	42.9	42.9	72	34.5	0	2	112	0.00	30.214 
04:10	42.9	42.9	42.9	73	34.9	0	1	112	0.00	30.214 
04:15	42.9	42.9	42.9	72	34.5	0	2	112	0.00	30.219 
04:20	42.9	42.9	42.9	71	34.2	0	2	112	0.00	30.219 
04:25	43.1	43.1	43.1	71	34.3	0	2	112	0.00	30.219 
04:30	43.1	43.1	43.1	71	34.3	0	1	112	0.00	30.218 
04:35	43.2	43.2	43.2	69	33.7	1	2	112	0.00	30.218 
04:40	43.5	43.5	43.5	68	33.7	1	3	112	0.00	30.218 
04:45	43.6	43.6	43.6	67	33.4	1	3	112	0.00	30.220 
04:50	43.8	43.8	43.8	67	33.6	0	2	112	0.00	30.220 
04:55	43.9	43.9	43.9	66	33.3	1	4	90	0.00	30.220 
05:00	43.9	43.9	43.9	66	33.3	0	3	90	0.00	30.222 
05:05	43.9	43.9	43.9	67	33.7	1	4	90	0.00	30.222 
05:10	43.9	43.9	43.9	67	33.7	0	3	90	0.00	30.222 
05:15	44.1	44.1	44.1	66	33.5	1	4	90	0.00	30.224 
05:20	44.1	44.1	44.1	66	33.5	0	3	90	0.00	30.224 
05:25	44.2	44.2	44.2	68	34.3	1	3	90	0.00	30.224 
05:30	44.1	44.1	44.1	69	34.6	1	3	90	0.00	30.223 
05:35	43.9	43.9	43.9	71	35.1	1	2	90	0.00	30.223 
05:40	43.8	43.8	43.8	72	35.4	1	4	90	0.00	30.223 
05:45	43.6	43.6	43.6	73	35.5	1	3	112	0.01	30.212 
05:50	43.3	43.3	43.3	75	35.9	1	3	90	0.00	30.212 
05:55	43.2	43.2	43.2	77	36.5	1	5	90	0.00	30.212 
06:00	42.9	42.9	42.9	78	36.5	1	3	112	0.01	30.215 
06:05	42.6	42.6	42.6	79	36.6	1	3	112	0.00	30.215 
06:10	42.5	42.5	42.5	80	36.8	1	5	90	0.00	30.215 
06:15	42.5	42.5	42.5	80	36.8	0	2	112	0.00	30.219 
06:20	42.3	42.3	42.3	81	36.9	0	3	112	0.00	30.219 
06:25	42.3	42.3	42.3	81	36.9	0	3	112	0.00	30.219 
06:30	42.3	42.3	42.3	81	36.9	0	2	112	0.00	30.223 
06:35	42.3	42.3	42.3	81	36.9	1	4	135	0.00	30.223 
06:40	42.3	42.3	42.3	81	36.9	1	5	90	0.00	30.223 
06:45	42.3	42.3	42.3	81	36.9	1	2	90	0.00	30.228 
06:50	42.3	42.3	42.3	81	36.9	1	3	90	0.00	30.228 
06:55	42.5	42.5	42.5	81	37.1	1	4	90	0.00	30.228 
07:00	42.5	42.5	42.5	82	37.4	0	4	90	0.00	30.234 
07:05	42.5	42.5	42.5	82	37.4	0	2	90	0.00	30.234 
07:10	42.5	42.5	42.5	82	37.4	1	3	90	0.01	30.234 
07:15	42.5	42.5	42.5	83	37.7	1	2	90	0.00	30.239 
07:20	42.3	42.3	42.3	84	37.8	0	2	90	0.00	30.239 
07:25	42.3	42.3	42.3	84	37.8	0	2	90	0.00	30.239 
07:30	42.3	42.3	42.3	85	38.1	0	4	90	0.00	30.245 
07:35	42.2	42.2	42.2	86	38.3	0	2	90	0.01	30.245 
07:40	42.2	42.2	42.2	86	38.3	0	2	90	0.00	30.245 
07:45	42.2	42.2	42.2	86	38.3	1	3	68	0.00	30.244 
07:50	42.2	42.2	42.2	87	38.6	1	2	68	0.00	30.244 
07:55	42.2	42.2	42.2	87	38.6	1	3	68	0.00	30.244 
08:00	42.2	42.2	42.2	87	38.6	1	3	68	0.01	30.256 
08:05	42.2	42.2	42.2	88	38.9	1	4	90	0.00	30.256 
08:10	42.2	42.2	42.2	88	38.9	1	7	90	0.01	30.256 
08:15	42.2	42.2	42.2	88	38.9	1	3	90	0.00	30.258 
08:20	42.2	42.2	42.2	89	39.2	1	4	112	0.00	30.258 
08:25	42.2	42.2	42.2	89	39.2	0	3	112	0.01	30.258 
08:30	42.3	42.3	42.3	89	39.3	1	4	112	0.00	30.267 
08:35	42.3	42.3	42.3	90	39.6	0	3	112	0.01	30.267 
08:40	42.5	42.5	42.5	90	39.8	1	4	112	0.00	30.267 
08:45	42.5	42.5	42.5	90	39.8	1	4	112	0.00	30.264 
08:50	42.5	42.5	42.5	90	39.8	1	3	90	0.00	30.264 
08:55	42.5	42.5	42.5	90	39.8	1	3	90	0.00	30.264 
09:00	42.6	42.6	42.6	91	40.2	1	2	90	0.00	30.261 
09:05	42.6	42.6	42.6	91	40.2	1	3	90	0.01	30.261 
09:10	42.8	42.8	42.8	91	40.4	0	1	90	0.00	30.261 
09:15	42.8	42.8	42.8	91	40.4	0	1	90	0.00	30.260 
09:20	42.9	42.9	42.9	91	40.5	0	2	90	0.00	30.260 
09:25	42.9	42.9	42.9	91	40.5	1	2	90	0.00	30.260 
09:30	42.9	42.9	42.9	91	40.5	0	2	90	0.00	30.261 
09:35	43.1	43.1	43.1	91	40.7	1	3	90	0.00	30.261 
09:40	43.1	43.1	43.1	91	40.7	0	2	90	0.00	30.261 
09:45	43.2	43.2	43.2	92	41.0	0	2	90	0.00	30.265 
09:50	43.3	43.3	43.3	92	41.1	0	3	90	0.00	30.265 
09:55	43.5	43.5	43.5	92	41.3	1	4	90	0.00	30.265 
10:00	43.8	43.8	43.8	92	41.6	0	2	112	0.00	30.262 
10:05	43.9	43.9	43.9	92	41.7	1	3	112	0.00	30.262 
10:10	44.2	44.2	44.2	92	42.0	1	5	90	0.00	30.262 
10:15	44.3	44.3	44.3	91	41.8	2	5	90	0.00	30.258 
10:20	44.5	44.5	44.5	91	42.0	2	4	112	0.00	30.258 
10:25	44.6	44.6	44.6	91	42.1	1	4	90	0.01	30.258 
10:30	44.6	44.6	44.6	90	41.9	2	5	90	0.00	30.257 
10:35	44.6	44.6	44.6	90	41.9	1	4	112	0.00	30.257 
10:40	44.6	44.6	44.6	89	41.6	1	4	112	0.00	30.257 
10:45	44.5	44.5	44.5	89	41.5	1	4	112	0.00	30.269 
10:50	44.6	44.6	44.6	89	41.6	1	6	112	0.00	30.269 
10:55	44.8	44.8	44.8	89	41.8	1	3	112	0.00	30.269 
11:00	44.8	44.8	44.8	88	41.5	1	3	112	0.00	30.270 
11:05	44.8	44.8	44.8	88	41.5	1	4	90	0.00	30.270 
11:10	44.8	44.8	44.8	87	41.2	0	3	135	0.00	30.270 
11:15	44.8	44.8	44.8	87	41.2	1	5	90	0.00	30.267 
11:20	44.6	44.6	44.6	87	41.0	1	4	112	0.00	30.267 
11:25	44.5	44.5	44.5	87	40.9	2	5	112	0.00	30.267 
11:30	44.5	44.5	44.5	88	41.2	1	4	68	0.01	30.253 
11:35	44.3	44.3	44.3	88	41.0	1	3	112	0.00	30.253 
11:40	44.5	44.5	44.5	88	41.2	1	3	112	0.00	30.253 
11:45	44.5	44.5	44.5	88	41.2	1	4	90	0.00	30.249 
11:50	44.6	44.6	44.6	88	41.3	1	3	68	0.00	30.249 
11:55	44.9	44.9	44.9	88	41.6	0	2	68	0.00	30.249 
12:00	45.1	45.1	45.1	88	41.8	1	4	68	0.00	30.239 
12:05	45.1	45.1	45.1	88	41.8	0	3	135	0.00	30.239 
12:10	45.2	45.2	45.2	88	41.9	0	4	135	0.00	30.239 
12:15	45.4	45.4	45.4	88	42.1	0	2	135	0.00	30.230 
12:20	45.2	45.2	45.2	87	41.6	1	4	135	0.00	30.230 
12:25	45.2	45.2	45.2	87	41.6	1	3	135	0.00	30.230 
12:30	45.1	45.1	45.1	86	41.2	1	5	112	0.00	30.223 
12:35	45.1	45.1	45.1	86	41.2	1	3	112	0.00	30.223 
12:40	45.1	45.1	45.1	86	41.2	1	4	135	0.00	30.223 
12:45	45.2	45.2	45.2	86	41.3	1	3	112	0.00	30.223 
12:50	45.2	45.2	45.2	86	41.3	0	3	135	0.00	30.223 
12:55	45.2	45.2	45.2	87	41.6	0	1	135	0.00	30.223 
13:00	45.1	45.1	45.1	87	41.5	1	5	112	0.00	30.215 
13:05	45.1	45.1	45.1	87	41.5	1	3	112	0.00	30.215 
13:10	45.1	45.1	45.1	87	41.5	1	2	112	0.00	30.215 
13:15	45.1	45.1	45.1	88	41.8	1	3	112	0.00	30.212 
13:20	44.9	44.9	44.9	88	41.6	1	3	112	0.00	30.212 
13:25	44.9	44.9	44.9	88	41.6	1	3	112	0.01	30.212 
13:30	44.8	44.8	44.8	89	41.8	0	2	112	0.00	30.208 
13:35	44.8	44.8	44.8	89	41.8	0	1	112	0.00	30.208 
13:40	44.8	44.8	44.8	89	41.8	0	2	112	0.00	30.208 
13:45	44.8	44.8	44.8	90	42.0	0	1	112	0.00	30.199 
13:50	44.9	44.9	44.9	90	42.1	0	2	112	0.00	30.199 
13:55	44.9	44.9	44.9	90	42.1	0	3	112	0.00	30.199 
14:00	44.9	44.9	44.9	90	42.1	0	2	112	0.00	30.193 
14:05	44.9	44.9	44.9	90	42.1	0	4	112	0.00	30.193 
14:10	44.9	44.9	44.9	91	42.4	1	2	112	0.00	30.193 
14:15	44.9	44.9	44.9	91	42.4	0	2	112	0.00	30.191 
14:20	44.9	44.9	44.9	91	42.4	0	3	112	0.01	30.191 
14:25	44.9	44.9	44.9	91	42.4	0	2	112	0.00	30.191 
14:30	45.1	45.1	45.1	91	42.6	0	2	112	0.00	30.190 
14:35	45.1	45.1	45.1	92	42.9	0	2	112	0.01	30.190 
14:40	45.1	45.1	45.1	92	42.9	0	1	112	0.00	30.190 
14:45	45.1	45.1	45.1	92	42.9	0	3	112	0.01	30.187 
14:50	45.1	45.1	45.1	92	42.9	0	2	112	0.00	30.187 
14:55	45.1	45.1	45.1	92	42.9	0	2	112	0.00	30.187 
15:00	45.1	45.1	45.1	92	42.9	0	1	112	0.01	30.183 
15:05	45.1	45.1	45.1	92	42.9	0	1	112	0.00	30.183 
15:10	45.2	45.2	45.2	92	43.0	0	0	---	0.00	30.183 
15:15	45.2	45.2	45.2	92	43.0	0	0	---	0.00	30.189 
15:20	45.2	45.2	45.2	92	43.0	0	2	112	0.01	30.189 
15:25	45.1	45.1	45.1	92	42.9	0	1	112	0.00	30.189 
15:30	45.1	45.1	45.1	93	43.2	0	1	112	0.00	30.191 
15:35	45.1	45.1	45.1	93	43.2	0	1	112	0.00	30.191 
15:40	45.1	45.1	45.1	93	43.2	0	0	---	0.01	30.191 
15:45	45.1	45.1	45.1	93	43.2	0	0	---	0.00	30.198 
15:50	45.1	45.1	45.1	93	43.2	0	0	---	0.01	30.198 
15:55	45.2	45.2	45.2	93	43.3	0	0	---	0.00	30.198 
16:00	45.2	45.2	45.2	93	43.3	0	1	112	0.00	30.199 
16:05	45.2	45.2	45.2	93	43.3	0	1	112	0.01	30.199 
16:10	45.2	45.2	45.2	93	43.3	0	1	112	0.00	30.199 
16:15	45.2	45.2	45.2	93	43.3	0	0	---	0.00	30.197 
16:20	45.2	45.2	45.2	93	43.3	0	1	112	0.01	30.197 
16:25	45.2	45.2	45.2	93	43.3	0	2	112	0.00	30.197 
16:30	45.1	45.1	45.1	93	43.2	0	0	---	0.00	30.190 
16:35	45.1	45.1	45.1	94	43.5	0	1	112	0.01	30.190 
16:40	45.1	45.1	45.1	94	43.5	0	1	112	0.00	30.190 
16:45	45.1	45.1	45.1	94	43.5	0	0	---	0.00	30.198 
16:50	45.1	45.1	45.1	94	43.5	0	1	112	0.00	30.198 
16:55	45.1	45.1	45.1	94	43.5	0	0	---	0.01	30.198 
17:00	45.1	45.1	45.1	94	43.5	0	1	112	0.00	30.200 
17:05	45.1	45.1	45.1	94	43.5	0	1	112	0.01	30.200 
17:10	45.1	45.1	45.1	94	43.5	0	1	112	0.00	30.200 
17:15	45.1	45.1	45.1	94	43.5	0	1	112	0.01	30.202 
17:20	45.1	45.1	45.1	94	43.5	0	0	---	0.00	30.202 
17:25	45.1	45.1	45.1	94	43.5	0	1	112	0.01	30.202 
17:30	45.1	45.1	45.1	94	43.5	0	1	112	0.00	30.199 
17:35	45.1	45.1	45.1	94	43.5	0	1	112	0.00	30.199 
17:40	45.1	45.1	45.1	94	43.5	0	0	---	0.01	30.199 
17:45	45.1	45.1	45.1	94	43.5	0	0	---	0.00	30.204 
17:50	45.1	45.1	45.1	94	43.5	0	0	---	0.00	30.204 
17:55	45.1	45.1	45.1	94	43.5	0	0	---	0.01	30.204 
18:00	45.1	45.1	45.1	94	43.5	0	0	---	0.01	30.203 
18:05	45.1	45.1	45.1	94	43.5	0	0	---	0.00	30.203 
18:10	44.9	44.9	44.9	95	43.6	0	0	---	0.01	30.203 
18:15	44.9	44.9	44.9	95	43.6	0	0	---	0.00	30.204 
18:20	44.9	44.9	44.9	95	43.6	0	0	---	0.01	30.204 
18:25	45.1	45.1	45.1	95	43.8	0	0	---	0.01	30.204 
18:30	45.1	45.1	45.1	95	43.8	0	1	112	0.00	30.205 
18:35	45.1	45.1	45.1	95	43.8	0	1	112	0.01	30.205 
18:40	45.1	45.1	45.1	95	43.8	0	1	112	0.01	30.205 
18:45	45.2	45.2	45.2	95	43.9	0	0	---	0.00	30.209 
18:50	45.2	45.2	45.2	95	43.9	0	1	112	0.01	30.209 
18:55	45.2	45.2	45.2	95	43.9	0	1	112	0.00	30.209 
19:00	45.2	45.2	45.2	95	43.9	0	0	---	0.01	30.206 
19:05	45.4	45.4	45.4	95	44.1	0	1	112	0.00	30.206 
19:10	45.4	45.4	45.4	95	44.1	0	1	112	0.01	30.206 
19:15	45.4	45.4	45.4	95	44.1	0	0	---	0.00	30.200 
19:20	45.4	45.4	45.4	95	44.1	0	0	---	0.01	30.200 
19:25	45.4	45.4	45.4	95	44.1	0	1	112	0.00	30.200 
19:30	45.4	45.4	45.4	95	44.1	0	1	112	0.00	30.200 
19:35	45.5	45.5	45.5	95	44.2	0	1	112	0.01	30.200 
19:40	45.5	45.5	45.5	95	44.2	0	1	112	0.00	30.200 
19:45	45.5	45.5	45.5	95	44.2	0	3	112	0.00	30.193 
19:50	45.7	45.7	45.7	95	44.4	0	1	112	0.00	30.193 
19:55	45.7	45.7	45.7	95	44.4	0	1	112	0.01	30.193 
20:00	45.7	45.7	45.7	95	44.4	0	1	112	0.00	30.189 
20:05	45.7	45.7	45.7	95	44.4	0	2	112	0.00	30.189 
20:10	45.7	45.7	45.7	95	44.4	0	1	112	0.01	30.189 
20:15	45.8	45.8	45.8	95	44.4	1	3	112	0.00	30.181 
20:20	45.8	45.8	45.8	95	44.4	0	2	112	0.01	30.181 
20:25	45.8	45.8	45.8	96	44.7	0	2	112	0.00	30.181 
20:30	45.8	45.8	45.8	95	44.4	0	1	112	0.00	30.176 
20:35	46.0	46.0	46.0	96	44.9	0	2	112	0.00	30.176 
20:40	46.0	46.0	46.0	96	44.9	0	2	112	0.01	30.176 
20:45	46.0	46.0	46.0	96	44.9	0	2	112	0.00	30.172 
20:50	46.1	46.1	46.1	96	45.0	0	2	112	0.00	30.172 
20:55	46.1	46.1	46.1	96	45.0	0	2	112	0.00	30.172 
21:00	46.2	46.2	46.2	96	45.1	0	2	112	0.00	30.173 
21:05	46.2	46.2	46.2	96	45.1	0	2	112	0.00	30.173 
21:10	46.2	46.2	46.2	96	45.1	0	2	112	0.00	30.173 
21:15	46.4	46.4	46.4	96	45.3	0	1	112	0.00	30.172 
21:20	46.4	46.4	46.4	96	45.3	0	0	---	0.01	30.172 
21:25	46.4	46.4	46.4	96	45.3	0	0	---	0.00	30.172 
21:30	46.5	46.5	46.5	96	45.4	0	0	---	0.00	30.173 
21:35	46.5	46.5	46.5	96	45.4	0	0	---	0.00	30.173 
21:40	46.5	46.5	46.5	96	45.4	0	0	---	0.00	30.173 
21:45	46.7	46.7	46.7	96	45.6	0	0	---	0.01	30.171 
21:50	46.7	46.7	46.7	96	45.6	0	1	112	0.00	30.171 
21:55	46.8	46.8	46.8	96	45.7	0	0	---	0.00	30.171 
22:00	46.8	46.8	46.8	96	45.7	0	0	---	0.00	30.171 
22:05	47.0	47.0	47.0	96	45.9	0	0	---	0.00	30.171 
22:10	47.1	47.1	47.1	96	46.0	0	0	---	0.00	30.171 
22:15	47.3	47.3	47.3	96	46.2	0	2	112	0.00	30.169 
22:20	47.4	47.4	47.4	96	46.3	0	2	112	0.00	30.169 
22:25	47.4	47.4	47.4	96	46.3	0	2	112	0.00	30.169 
22:30	47.6	47.6	47.6	96	46.5	0	2	112	0.00	30.168 
22:35	47.6	47.6	47.6	96	46.5	0	1	112	0.00	30.168 
22:40	47.6	47.6	47.6	96	46.5	0	0	---	0.00	30.168 
22:45	47.6	47.6	47.6	96	46.5	0	1	112	0.00	30.166 
22:50	47.6	47.6	47.6	96	46.5	0	1	112	0.01	30.166 
22:55	47.6	47.6	47.6	96	46.5	0	2	112	0.00	30.166 
23:00	47.7	47.7	47.7	96	46.6	0	1	112	0.00	30.166 
23:05	47.7	47.7	47.7	96	46.6	0	3	112	0.00	30.166 
23:10	47.7	47.7	47.7	96	46.6	0	1	112	0.00	30.166 
23:15	47.9	47.9	47.9	96	46.8	0	2	112	0.00	30.161 
23:20	47.9	47.9	47.9	96	46.8	0	2	112	0.00	30.161 
23:25	47.9	47.9	47.9	96	46.8	0	2	112	0.00	30.161 
23:30	47.9	47.9	47.9	96	46.8	0	1	112	0.00	30.158 
23:35	48.0	48.0	48.0	96	46.9	0	1	112	0.01	30.158 
23:40	48.0	48.0	48.0	96	46.9	0	1	112	0.00	30.158 
23:45	48.0	48.0	48.0	96	46.9	0	1	112	0.00	30.155 
23:50	48.0	48.0	48.0	96	46.9	0	1	112	0.00	30.155 
23:55	48.0	48.0	48.0	96	46.9	0	1	112	0.00	30.155 

CoCoRaHS
IN-AL-39
A2 Web Hosting
Creative Commons License
GoDaddy
search engine by freefind advanced

loaded 2018-11-13 23:27:06 • last modified 2010-11-18 10:43:29
Privacy PolicyDisclaimer
• wx.awcolley.com is powered by PmWiki v.2002016 •
• all content (unless otherwise noted) © 2018 A W Colley